Time;durP1;ratioP1;P1;durP2;ratioP2;P2;SDS_P1;SDS_P2;PMS_P1;PMS_P2;Temp;Humidity;BMP_temperature;BMP_pressure;BME280_temperature;BME280_humidity;BME280_pressure;Samples;Min_cycle;Max_cycle;Signal;HPM_P1;HPM_P2
2024/02/28 00:00:15;;;;;;;13.30;3.88;;;;;;;;;;5024359;28;20076;-71
2024/02/28 00:02:41;;;;;;;13.50;3.35;;;;;;;;;;5022661;28;20493;-71
2024/02/28 00:05:07;;;;;;;11.88;2.55;;;;;;;;;;5021745;28;20755;-71
2024/02/28 00:07:34;;;;;;;;;;;;;;;;;;5022774;28;20042;-71
2024/02/28 00:10:06;;;;;;;12.40;2.50;;;;;;;;;;5017966;28;19920;-71
2024/02/28 00:12:34;;;;;;;11.10;2.45;;;;;;;;;;5010861;28;20030;-72
2024/02/28 00:15:00;;;;;;;11.20;2.55;;;;;;;;;;5019680;28;20029;-71
2024/02/28 00:17:26;;;;;;;10.57;2.80;;;;;;;;;;5022358;28;20029;-72
2024/02/28 00:19:52;;;;;;;12.38;2.45;;;;;;;;;;5018948;28;20253;-71
2024/02/28 00:22:18;;;;;;;10.68;2.72;;;;;;;;;;5023312;28;20040;-70
2024/02/28 00:24:45;;;;;;;10.45;2.45;;;;;;;;;;5005355;28;20037;-70
2024/02/28 00:27:11;;;;;;;12.75;2.72;;;;;;;;;;5024913;28;20040;-70
2024/02/28 00:29:37;;;;;;;16.90;2.90;;;;;;;;;;5022727;28;20029;-70
2024/02/28 00:32:03;;;;;;;13.73;2.55;;;;;;;;;;5000768;28;20029;-70
2024/02/28 00:34:30;;;;;;;11.25;2.90;;;;;;;;;;5021222;28;20542;-70
2024/02/28 00:36:56;;;;;;;11.50;2.72;;;;;;;;;;5005459;28;20124;-70
2024/02/28 00:39:22;;;;;;;12.50;3.00;;;;;;;;;;5022419;28;20033;-70
2024/02/28 00:41:48;;;;;;;11.55;3.25;;;;;;;;;;5020235;28;20387;-70
2024/02/28 00:44:14;;;;;;;12.27;3.53;;;;;;;;;;5023669;28;20067;-69
2024/02/28 00:46:40;;;;;;;10.32;2.83;;;;;;;;;;5022677;28;20057;-69
2024/02/28 00:49:06;;;;;;;13.93;3.70;;;;;;;;;;5003471;28;20210;-70
2024/02/28 00:51:33;;;;;;;11.90;3.30;;;;;;;;;;5019643;28;20036;-69
2024/02/28 00:53:59;;;;;;;12.85;3.60;;;;;;;;;;5020371;28;20891;-70
2024/02/28 00:56:27;;;;;;;;;;;;;;;;;;5024655;28;20210;-69
2024/02/28 00:58:53;;;;;;;11.15;3.05;;;;;;;;;;5023253;28;20736;-69
2024/02/28 01:01:19;;;;;;;;;;;;;;;;;;5024461;28;20067;-71
2024/02/28 01:03:45;;;;;;;13.40;2.33;;;;;;;;;;5005407;28;19913;-71
2024/02/28 01:06:11;;;;;;;11.40;2.70;;;;;;;;;;5006052;28;20140;-70
2024/02/28 01:08:37;;;;;;;11.27;2.38;;;;;;;;;;5018118;28;20109;-71
2024/02/28 01:11:04;;;;;;;11.18;2.10;;;;;;;;;;5015597;28;20036;-71
2024/02/28 01:13:30;;;;;;;;;;;;;;;;;;5003433;28;20674;-71
2024/02/28 01:15:56;;;;;;;9.80;2.30;;;;;;;;;;5006446;28;19923;-69
2024/02/28 01:18:22;;;;;;;12.35;2.53;;;;;;;;;;5025446;28;20040;-69
2024/02/28 01:20:48;;;;;;;9.60;2.08;;;;;;;;;;5000731;28;20156;-69
2024/02/28 01:23:14;;;;;;;12.43;2.10;;;;;;;;;;5006709;28;20041;-69
2024/02/28 01:25:40;;;;;;;11.00;2.10;;;;;;;;;;5027110;28;20131;-69
2024/02/28 01:28:06;;;;;;;9.57;2.10;;;;;;;;;;5016419;28;20041;-71
2024/02/28 01:30:32;;;;;;;10.40;2.47;;;;;;;;;;5005320;28;20868;-71
2024/02/28 01:32:59;;;;;;;9.25;2.10;;;;;;;;;;5021634;28;20041;-71
2024/02/28 01:35:25;;;;;;;10.95;2.17;;;;;;;;;;5021642;28;20068;-69
2024/02/28 01:37:51;;;;;;;11.25;1.92;;;;;;;;;;5002897;28;20451;-69
2024/02/28 01:40:17;;;;;;;9.98;2.08;;;;;;;;;;5020121;28;20024;-71
2024/02/28 01:42:43;;;;;;;10.65;2.10;;;;;;;;;;5022288;28;20053;-71
2024/02/28 01:45:13;;;;;;;10.65;2.42;;;;;;;;;;5019243;28;20671;-70
2024/02/28 01:47:39;;;;;;;11.00;2.17;;;;;;;;;;5020990;28;20045;-71
2024/02/28 01:50:06;;;;;;;12.90;2.53;;;;;;;;;;5020160;28;20040;-71
2024/02/28 01:52:32;;;;;;;11.27;2.42;;;;;;;;;;5005689;28;20041;-71
2024/02/28 01:54:58;;;;;;;9.18;2.17;;;;;;;;;;5019744;28;20029;-70
2024/02/28 01:57:24;;;;;;;11.75;2.47;;;;;;;;;;5020942;28;20104;-70
2024/02/28 01:59:50;;;;;;;12.18;2.25;;;;;;;;;;5022554;28;20945;-70
2024/02/28 02:02:17;;;;;;;12.80;2.28;;;;;;;;;;5016546;28;20537;-70
2024/02/28 02:04:43;;;;;;;;;;;;;;;;;;5003169;28;20055;-70
2024/02/28 02:07:09;;;;;;;12.48;2.33;;;;;;;;;;5019146;28;19920;-70
2024/02/28 02:09:35;;;;;;;13.57;2.67;;;;;;;;;;5002338;28;20116;-70
2024/02/28 02:12:01;;;;;;;12.52;2.60;;;;;;;;;;4997322;28;20028;-70
2024/02/28 02:14:28;;;;;;;10.63;2.08;;;;;;;;;;5014222;28;20040;-70
2024/02/28 02:16:54;;;;;;;9.02;2.15;;;;;;;;;;5017534;28;20402;-70
2024/02/28 02:19:21;;;;;;;12.68;2.40;;;;;;;;;;5022912;28;20084;-71
2024/02/28 02:21:47;;;;;;;;;;;;;;;;;;5001320;28;20037;-70
2024/02/28 02:24:16;;;;;;;11.68;2.40;;;;;;;;;;5017587;28;19913;-71
2024/02/28 02:26:44;;;;;;;11.68;2.58;;;;;;;;;;5021896;28;20048;-71
2024/02/28 02:29:10;;;;;;;10.82;2.58;;;;;;;;;;5002389;28;20037;-71
2024/02/28 02:31:36;;;;;;;10.98;2.38;;;;;;;;;;5025292;28;20036;-71
2024/02/28 02:34:02;;;;;;;11.77;2.55;;;;;;;;;;5004352;28;20128;-71
2024/02/28 02:36:29;;;;;;;13.68;2.70;;;;;;;;;;5021865;28;20091;-71
2024/02/28 02:38:55;;;;;;;13.82;2.95;;;;;;;;;;5018870;28;20030;-71
2024/02/28 02:41:21;;;;;;;12.20;2.97;;;;;;;;;;5023810;28;20036;-71
2024/02/28 02:43:47;;;;;;;12.75;2.80;;;;;;;;;;5003249;28;20043;-69
2024/02/28 02:46:13;;;;;;;12.90;3.00;;;;;;;;;;5022409;28;20044;-72
2024/02/28 02:48:39;;;;;;;12.70;2.80;;;;;;;;;;5018792;28;20086;-69
2024/02/28 02:51:05;;;;;;;16.02;3.00;;;;;;;;;;5002382;28;20463;-69
2024/02/28 02:53:31;;;;;;;13.07;3.28;;;;;;;;;;5020897;28;20036;-69
2024/02/28 02:55:57;;;;;;;11.38;2.70;;;;;;;;;;5017836;28;20126;-69
2024/02/28 02:58:24;;;;;;;13.27;2.80;;;;;;;;;;5021332;28;20078;-69
2024/02/28 03:00:50;;;;;;;14.68;2.88;;;;;;;;;;4999904;28;20036;-69
2024/02/28 03:03:16;;;;;;;14.05;2.95;;;;;;;;;;5019479;28;21379;-70
2024/02/28 03:05:42;;;;;;;13.65;2.92;;;;;;;;;;5007080;28;20053;-69
2024/02/28 03:08:08;;;;;;;10.00;2.38;;;;;;;;;;5021441;28;20032;-69
2024/02/28 03:10:34;;;;;;;12.02;2.38;;;;;;;;;;5022569;28;20041;-69
2024/02/28 03:13:01;;;;;;;11.77;2.53;;;;;;;;;;5017623;28;20149;-69
2024/02/28 03:15:27;;;;;;;12.57;2.28;;;;;;;;;;5023865;28;20095;-69
2024/02/28 03:17:54;;;;;;;9.52;2.15;;;;;;;;;;5023066;28;20036;-69
2024/02/28 03:20:21;;;;;;;9.27;2.08;;;;;;;;;;5016396;28;20037;-69
2024/02/28 03:22:47;;;;;;;8.45;1.80;;;;;;;;;;4997421;28;20114;-69
2024/02/28 03:25:13;;;;;;;11.63;2.15;;;;;;;;;;5020849;28;20029;-70
2024/02/28 03:27:39;;;;;;;11.00;1.88;;;;;;;;;;5023275;28;20468;-69
2024/02/28 03:30:06;;;;;;;9.43;1.90;;;;;;;;;;5015236;28;20588;-69
2024/02/28 03:32:32;;;;;;;7.70;1.77;;;;;;;;;;5022674;28;20627;-69
2024/02/28 03:34:58;;;;;;;8.90;1.90;;;;;;;;;;5018341;28;20025;-69
2024/02/28 03:37:24;;;;;;;13.18;2.17;;;;;;;;;;5021367;28;20021;-69
2024/02/28 03:39:50;;;;;;;8.82;1.92;;;;;;;;;;5019386;28;20740;-70
2024/02/28 03:42:16;;;;;;;10.35;1.95;;;;;;;;;;5003393;28;20024;-69
2024/02/28 03:44:43;;;;;;;8.48;2.03;;;;;;;;;;5024420;28;20107;-69
2024/02/28 03:47:09;;;;;;;9.80;1.75;;;;;;;;;;5017698;28;20039;-69
2024/02/28 03:49:35;;;;;;;9.07;1.80;;;;;;;;;;5018396;28;20029;-69
2024/02/28 03:52:01;;;;;;;7.43;1.25;;;;;;;;;;5000721;28;20052;-68
2024/02/28 03:54:28;;;;;;;5.95;1.20;;;;;;;;;;4999905;28;20469;-71
2024/02/28 03:56:54;;;;;;;4.90;1.00;;;;;;;;;;5016020;28;20025;-71
2024/02/28 03:59:20;;;;;;;4.30;0.88;;;;;;;;;;5018960;28;20041;-71
2024/02/28 04:01:46;;;;;;;4.18;0.90;;;;;;;;;;5021613;28;20030;-69
2024/02/28 04:04:12;;;;;;;5.35;1.00;;;;;;;;;;5015983;28;20021;-69
2024/02/28 04:06:38;;;;;;;4.57;1.00;;;;;;;;;;4999854;28;20298;-69
2024/02/28 04:09:04;;;;;;;6.50;1.10;;;;;;;;;;5017680;28;20583;-69
2024/02/28 04:11:31;;;;;;;3.45;0.90;;;;;;;;;;5003134;28;20029;-70
2024/02/28 04:13:57;;;;;;;3.95;1.00;;;;;;;;;;5019467;28;20040;-69
2024/02/28 04:16:23;;;;;;;4.20;1.00;;;;;;;;;;5019835;28;20149;-69
2024/02/28 04:18:49;;;;;;;3.85;0.90;;;;;;;;;;5018074;28;20029;-69
2024/02/28 04:21:15;;;;;;;5.07;0.98;;;;;;;;;;5019169;28;20520;-69
2024/02/28 04:23:41;;;;;;;3.80;0.90;;;;;;;;;;5023457;28;20028;-69
2024/02/28 04:26:07;;;;;;;;;;;;;;;;;;5019596;28;20040;-69
2024/02/28 04:28:33;;;;;;;5.40;0.88;;;;;;;;;;5018746;28;19913;-69
2024/02/28 04:30:59;;;;;;;5.85;1.00;;;;;;;;;;5016767;28;20124;-70
2024/02/28 04:33:26;;;;;;;3.15;0.80;;;;;;;;;;5016894;28;20033;-69
2024/02/28 04:35:52;;;;;;;4.13;0.98;;;;;;;;;;5017351;28;20197;-69
2024/02/28 04:38:18;;;;;;;4.05;0.90;;;;;;;;;;5023355;28;20039;-69
2024/02/28 04:40:44;;;;;;;2.90;0.77;;;;;;;;;;5021522;28;20036;-69
2024/02/28 04:43:10;;;;;;;;;;;;;;;;;;5020911;28;20044;-69
2024/02/28 04:45:37;;;;;;;5.38;1.13;;;;;;;;;;5011651;28;19912;-69
2024/02/28 04:48:03;;;;;;;6.10;1.00;;;;;;;;;;5021651;28;20128;-69
2024/02/28 04:50:29;;;;;;;4.90;1.17;;;;;;;;;;5005672;28;20125;-70
2024/02/28 04:52:55;;;;;;;4.03;0.93;;;;;;;;;;5020590;28;20481;-69
2024/02/28 04:55:22;;;;;;;5.55;1.15;;;;;;;;;;5024300;28;20025;-69
2024/02/28 04:57:48;;;;;;;7.93;1.75;;;;;;;;;;5019355;28;20064;-69
2024/02/28 05:00:14;;;;;;;7.80;1.70;;;;;;;;;;5006097;28;20033;-69
2024/02/28 05:02:40;;;;;;;7.38;1.60;;;;;;;;;;5023739;28;20048;-69
2024/02/28 05:05:06;;;;;;;9.75;2.25;;;;;;;;;;5020847;28;21483;-70
2024/02/28 05:07:32;;;;;;;9.77;2.25;;;;;;;;;;5025325;28;20567;-69
2024/02/28 05:09:58;;;;;;;13.77;3.88;;;;;;;;;;5004121;28;20532;-69
2024/02/28 05:12:24;;;;;;;12.13;3.38;;;;;;;;;;5019909;28;20036;-69
2024/02/28 05:14:51;;;;;;;9.57;2.35;;;;;;;;;;5023460;28;20083;-69
2024/02/28 05:17:17;;;;;;;9.13;2.08;;;;;;;;;;5026028;28;20151;-69
2024/02/28 05:19:43;;;;;;;9.02;2.20;;;;;;;;;;5022294;28;20033;-69
2024/02/28 05:22:11;;;;;;;6.90;1.98;;;;;;;;;;5000979;28;20079;-70
2024/02/28 05:24:37;;;;;;;7.95;1.90;;;;;;;;;;5004637;28;20484;-69
2024/02/28 05:27:03;;;;;;;10.20;2.20;;;;;;;;;;5006607;28;20070;-70
2024/02/28 05:29:29;;;;;;;9.48;2.38;;;;;;;;;;5004603;28;20105;-70
2024/02/28 05:31:55;;;;;;;7.22;2.05;;;;;;;;;;5019360;28;20044;-69
2024/02/28 05:34:21;;;;;;;9.57;2.28;;;;;;;;;;5022662;28;20056;-69
2024/02/28 05:36:48;;;;;;;8.00;1.90;;;;;;;;;;5019264;28;20040;-69
2024/02/28 05:39:14;;;;;;;10.88;2.10;;;;;;;;;;5004874;28;20484;-69
2024/02/28 05:41:40;;;;;;;12.50;3.15;;;;;;;;;;5027515;28;20036;-69
2024/02/28 05:44:07;;;;;;;11.15;3.00;;;;;;;;;;5022058;28;22958;-70
2024/02/28 05:46:33;;;;;;;10.02;2.67;;;;;;;;;;5022123;28;20563;-69
2024/02/28 05:48:59;;;;;;;12.27;3.05;;;;;;;;;;5009799;28;20849;-69
2024/02/28 05:51:25;;;;;;;9.48;2.75;;;;;;;;;;5005018;28;20025;-69
2024/02/28 05:53:51;;;;;;;8.60;2.53;;;;;;;;;;5019446;28;20053;-69
2024/02/28 05:56:19;;;;;;;9.52;2.40;;;;;;;;;;5024103;28;20020;-70
2024/02/28 05:58:46;;;;;;;7.95;2.25;;;;;;;;;;5019773;28;20107;-69
2024/02/28 06:01:12;;;;;;;10.35;2.97;;;;;;;;;;5020668;28;20091;-69
2024/02/28 06:03:38;;;;;;;9.27;2.53;;;;;;;;;;5023340;28;20044;-70
2024/02/28 06:06:05;;;;;;;9.32;2.50;;;;;;;;;;5001136;28;20123;-69
2024/02/28 06:08:34;;;;;;;8.23;2.30;;;;;;;;;;5021709;28;20033;-69
2024/02/28 06:11:00;;;;;;;9.50;2.80;;;;;;;;;;5022890;28;20022;-69
2024/02/28 06:13:27;;;;;;;10.93;2.75;;;;;;;;;;5005165;28;20033;-69
2024/02/28 06:15:53;;;;;;;10.27;2.42;;;;;;;;;;5022871;28;20037;-69
2024/02/28 06:18:19;;;;;;;8.27;2.10;;;;;;;;;;5002997;28;20025;-69
2024/02/28 06:20:45;;;;;;;7.43;2.10;;;;;;;;;;5019556;28;20036;-69
2024/02/28 06:23:11;;;;;;;7.75;1.70;;;;;;;;;;5022796;28;20029;-70
2024/02/28 06:25:38;;;;;;;8.75;2.10;;;;;;;;;;5010509;28;20037;-71
2024/02/28 06:28:06;;;;;;;6.80;1.73;;;;;;;;;;5001335;28;20128;-71
2024/02/28 06:30:33;;;;;;;6.30;1.80;;;;;;;;;;5022218;28;20036;-69
2024/02/28 06:33:00;;;;;;;8.93;2.35;;;;;;;;;;4999284;28;20638;-71
2024/02/28 06:35:26;;;;;;;7.70;1.70;;;;;;;;;;5023761;28;20857;-70
2024/02/28 06:37:52;;;;;;;6.38;1.60;;;;;;;;;;5020503;28;20147;-70
2024/02/28 06:40:18;;;;;;;5.70;1.55;;;;;;;;;;5022621;28;20028;-70
2024/02/28 06:42:44;;;;;;;7.05;1.85;;;;;;;;;;5023060;28;20033;-69
2024/02/28 06:45:10;;;;;;;6.90;1.70;;;;;;;;;;5020185;28;20060;-69
2024/02/28 06:47:37;;;;;;;5.88;1.25;;;;;;;;;;5023482;28;20091;-68
2024/02/28 06:50:05;;;;;;;7.57;1.90;;;;;;;;;;5020108;28;20033;-69
2024/02/28 06:52:32;;;;;;;6.60;1.42;;;;;;;;;;5005322;28;20810;-69
2024/02/28 06:54:59;;;;;;;6.65;1.50;;;;;;;;;;5002356;28;20186;-69
2024/02/28 06:57:25;;;;;;;5.60;1.45;;;;;;;;;;5001521;28;20025;-71
2024/02/28 06:59:51;;;;;;;6.05;1.88;;;;;;;;;;5021163;28;20037;-69
2024/02/28 07:02:18;;;;;;;5.38;1.30;;;;;;;;;;5022490;28;20583;-70
2024/02/28 07:04:44;;;;;;;7.60;1.95;;;;;;;;;;5022977;28;20087;-69
2024/02/28 07:07:10;;;;;;;6.30;1.63;;;;;;;;;;5016646;28;20352;-69
2024/02/28 07:09:40;;;;;;;5.80;1.42;;;;;;;;;;5002853;28;20045;-70
2024/02/28 07:12:06;;;;;;;6.95;2.00;;;;;;;;;;5005795;28;20403;-70
2024/02/28 07:14:32;;;;;;;6.00;1.63;;;;;;;;;;5023585;28;20061;-69
2024/02/28 07:16:58;;;;;;;6.15;1.63;;;;;;;;;;5018321;28;20012;-70
2024/02/28 07:19:25;;;;;;;5.13;1.30;;;;;;;;;;5024248;28;20058;-70
2024/02/28 07:21:51;;;;;;;8.65;2.08;;;;;;;;;;5018891;28;20014;-70
2024/02/28 07:24:17;;;;;;;7.15;1.88;;;;;;;;;;5019246;28;20029;-70
2024/02/28 07:26:43;;;;;;;6.07;1.67;;;;;;;;;;5004445;28;20033;-70
2024/02/28 07:29:09;;;;;;;5.85;1.45;;;;;;;;;;5018403;28;20481;-70
2024/02/28 07:31:35;;;;;;;6.93;1.65;;;;;;;;;;5020979;28;20060;-70
2024/02/28 07:34:01;;;;;;;6.40;1.60;;;;;;;;;;5018432;28;20041;-69
2024/02/28 07:36:27;;;;;;;5.53;1.70;;;;;;;;;;5008655;28;20033;-69
2024/02/28 07:38:53;;;;;;;6.68;2.00;;;;;;;;;;5018768;28;20082;-69
2024/02/28 07:41:19;;;;;;;7.68;3.00;;;;;;;;;;5000318;28;20017;-69
2024/02/28 07:43:46;;;;;;;6.50;2.20;;;;;;;;;;5022052;28;20539;-69
2024/02/28 07:46:12;;;;;;;5.97;1.90;;;;;;;;;;5004389;28;20025;-69
2024/02/28 07:48:38;;;;;;;;;;;;;;;;;;5021082;28;20033;-70
2024/02/28 07:51:07;;;;;;;4.45;1.50;;;;;;;;;;5017912;28;19913;-68
2024/02/28 07:53:34;;;;;;;6.30;1.85;;;;;;;;;;5018562;28;20602;-68
2024/02/28 07:56:00;;;;;;;4.68;1.45;;;;;;;;;;5008391;28;20052;-68
2024/02/28 07:58:26;;;;;;;6.72;1.90;;;;;;;;;;5024254;28;20047;-68
2024/02/28 08:00:52;;;;;;;5.40;1.30;;;;;;;;;;5017549;28;20030;-69
2024/02/28 08:03:18;;;;;;;5.38;1.63;;;;;;;;;;5017028;28;20102;-70
2024/02/28 08:05:44;;;;;;;6.03;1.88;;;;;;;;;;5023866;28;20045;-70
2024/02/28 08:08:11;;;;;;;4.65;1.40;;;;;;;;;;4998349;28;20071;-70
2024/02/28 08:10:38;;;;;;;7.70;1.70;;;;;;;;;;5019779;28;20029;-70
2024/02/28 08:13:05;;;;;;;8.55;1.65;;;;;;;;;;5021172;28;20195;-72
2024/02/28 08:15:31;;;;;;;5.43;1.35;;;;;;;;;;5026575;28;20786;-69
2024/02/28 08:17:58;;;;;;;5.68;1.60;;;;;;;;;;5003907;28;20025;-70
2024/02/28 08:20:24;;;;;;;7.72;2.08;;;;;;;;;;5023719;28;20117;-70
2024/02/28 08:22:52;;;;;;;7.03;2.10;;;;;;;;;;5017540;28;20036;-70
2024/02/28 08:25:18;;;;;;;7.22;1.77;;;;;;;;;;5023508;28;20139;-69
2024/02/28 08:27:44;;;;;;;6.95;1.55;;;;;;;;;;5023045;28;20056;-70
2024/02/28 08:30:11;;;;;;;6.18;1.55;;;;;;;;;;5002184;28;20041;-70
2024/02/28 08:32:37;;;;;;;7.78;1.67;;;;;;;;;;5024820;28;20067;-69
2024/02/28 08:35:03;;;;;;;6.25;1.48;;;;;;;;;;5001888;28;20061;-69
2024/02/28 08:37:29;;;;;;;9.57;3.00;;;;;;;;;;5020501;28;20096;-70
2024/02/28 08:39:57;;;;;;;10.27;3.33;;;;;;;;;;5005055;28;20347;-70
2024/02/28 08:42:25;;;;;;;9.75;3.30;;;;;;;;;;5022080;28;20025;-70
2024/02/28 08:44:51;;;;;;;11.63;3.13;;;;;;;;;;5009396;28;20548;-69
2024/02/28 08:47:18;;;;;;;8.95;2.15;;;;;;;;;;5021268;28;20032;-69
2024/02/28 08:49:44;;;;;;;8.65;2.10;;;;;;;;;;5024098;28;20110;-70
2024/02/28 08:52:10;;;;;;;16.00;3.25;;;;;;;;;;5002078;28;20173;-69
2024/02/28 08:54:37;;;;;;;12.07;2.88;;;;;;;;;;5022885;28;20029;-70
2024/02/28 08:57:03;;;;;;;7.82;2.22;;;;;;;;;;5018613;28;20032;-69
2024/02/28 08:59:30;;;;;;;7.10;1.95;;;;;;;;;;5022772;28;20024;-70
2024/02/28 09:01:56;;;;;;;7.57;1.88;;;;;;;;;;5019858;28;20087;-71
2024/02/28 09:04:22;;;;;;;6.70;2.20;;;;;;;;;;5023225;28;20017;-72
2024/02/28 09:06:48;;;;;;;8.05;2.17;;;;;;;;;;5022526;28;20109;-69
2024/02/28 09:09:14;;;;;;;8.10;2.13;;;;;;;;;;5019774;28;20034;-69
2024/02/28 09:11:40;;;;;;;6.05;1.50;;;;;;;;;;5018588;28;20713;-69
2024/02/28 09:14:06;;;;;;;6.68;1.50;;;;;;;;;;5020011;28;20052;-69
2024/02/28 09:16:32;;;;;;;5.25;1.30;;;;;;;;;;5011854;28;20817;-68
2024/02/28 09:18:58;;;;;;;4.90;1.42;;;;;;;;;;5018287;28;20032;-71
2024/02/28 09:21:25;;;;;;;7.45;1.90;;;;;;;;;;5020917;28;20021;-69
2024/02/28 09:23:51;;;;;;;5.47;1.30;;;;;;;;;;5018338;28;20527;-71
2024/02/28 09:26:17;;;;;;;5.32;1.30;;;;;;;;;;5022900;28;20029;-69
2024/02/28 09:28:43;;;;;;;6.78;1.42;;;;;;;;;;5023334;28;20139;-69
2024/02/28 09:31:09;;;;;;;4.13;1.10;;;;;;;;;;5003084;28;20068;-69
2024/02/28 09:33:35;;;;;;;5.90;1.52;;;;;;;;;;5024148;28;20450;-69
2024/02/28 09:36:05;;;;;;;4.60;1.13;;;;;;;;;;5020202;28;20034;-69
2024/02/28 09:38:32;;;;;;;5.38;1.33;;;;;;;;;;5008411;28;20765;-69
2024/02/28 09:40:59;;;;;;;5.20;1.08;;;;;;;;;;5021417;28;20021;-69
2024/02/28 09:43:25;;;;;;;;;;;;;;;;;;5022348;28;20125;-69
2024/02/28 09:45:51;;;;;;;5.50;1.10;;;;;;;;;;5005709;28;20020;-69
2024/02/28 09:48:18;;;;;;;6.38;1.60;;;;;;;;;;5001585;28;20064;-69
2024/02/28 09:50:46;;;;;;;7.28;1.70;;;;;;;;;;5022943;28;20544;-69
2024/02/28 09:53:12;;;;;;;6.63;1.70;;;;;;;;;;5020180;28;20036;-69
2024/02/28 09:55:38;;;;;;;4.18;1.23;;;;;;;;;;5007365;28;20492;-69
2024/02/28 09:58:05;;;;;;;7.40;1.70;;;;;;;;;;5017666;28;20078;-69
2024/02/28 10:00:31;;;;;;;6.20;1.80;;;;;;;;;;5001400;28;20029;-68
2024/02/28 10:02:57;;;;;;;;;;;;;;;;;;5022747;28;20029;-69
2024/02/28 10:05:26;;;;;;;5.22;1.20;;;;;;;;;;5006873;28;20617;-69
2024/02/28 10:07:53;;;;;;;6.63;1.50;;;;;;;;;;5019918;28;20045;-68
2024/02/28 10:10:19;;;;;;;6.57;1.30;;;;;;;;;;5026583;28;20046;-69
2024/02/28 10:12:45;;;;;;;5.63;1.52;;;;;;;;;;5023110;28;20036;-69
2024/02/28 10:15:12;;;;;;;5.25;1.20;;;;;;;;;;5016297;28;20033;-69
2024/02/28 10:17:38;;;;;;;4.72;1.55;;;;;;;;;;5022911;28;20021;-68
2024/02/28 10:20:04;;;;;;;6.15;1.67;;;;;;;;;;5020770;28;20064;-69
2024/02/28 10:22:39;;;;;;;6.38;1.52;;;;;;;;;;5020140;28;20034;-69
2024/02/28 10:25:06;;;;;;;7.03;1.80;;;;;;;;;;5020198;28;20036;-69
2024/02/28 10:27:31;;;;;;;;;;;;;;;;;;5025961;28;20029;-69
2024/02/28 10:29:58;;;;;;;6.70;1.33;;;;;;;;;;4997885;28;20048;-69
2024/02/28 10:32:24;;;;;;;7.78;1.45;;;;;;;;;;5011218;28;20047;-69
2024/02/28 10:34:50;;;;;;;7.72;1.73;;;;;;;;;;5020080;28;20092;-70
2024/02/28 10:37:16;;;;;;;6.63;1.58;;;;;;;;;;5013303;28;20033;-69
2024/02/28 10:39:43;;;;;;;7.20;1.58;;;;;;;;;;5021378;28;20127;-69
2024/02/28 10:42:10;;;;;;;8.38;1.77;;;;;;;;;;5021771;28;20044;-70
2024/02/28 10:44:36;;;;;;;7.45;1.50;;;;;;;;;;5020154;28;20588;-69
2024/02/28 10:47:03;;;;;;;7.53;1.65;;;;;;;;;;5017347;28;20045;-69
2024/02/28 10:49:30;;;;;;;6.80;1.55;;;;;;;;;;5023340;28;20064;-69
2024/02/28 10:51:57;;;;;;;9.65;2.63;;;;;;;;;;5018762;28;20031;-69
2024/02/28 10:54:25;;;;;;;6.40;1.50;;;;;;;;;;5003512;28;20048;-69
2024/02/28 10:56:52;;;;;;;5.47;1.30;;;;;;;;;;5012828;28;20053;-69
2024/02/28 10:59:18;;;;;;;7.07;1.50;;;;;;;;;;5016945;28;20748;-68
2024/02/28 11:01:45;;;;;;;5.57;1.40;;;;;;;;;;5023300;28;20033;-69
2024/02/28 11:04:12;;;;;;;7.10;1.50;;;;;;;;;;5017883;28;20393;-69
2024/02/28 11:06:49;;;;;;;5.10;1.08;;;;;;;;;;5022640;28;20177;-69
2024/02/28 11:09:19;;;;;;;7.40;1.60;;;;;;;;;;5023011;28;20052;-69
2024/02/28 11:11:46;;;;;;;7.28;1.50;;;;;;;;;;5021303;28;20647;-69
2024/02/28 11:14:12;;;;;;;;;;;;;;;;;;5004984;28;20033;-69
2024/02/28 11:16:39;;;;;;;5.93;1.35;;;;;;;;;;5005251;28;19912;-69
2024/02/28 11:19:05;;;;;;;5.38;1.40;;;;;;;;;;5014689;28;20056;-71
2024/02/28 11:21:35;;;;;;;4.57;1.30;;;;;;;;;;5019596;28;20033;-71
2024/02/28 11:24:01;;;;;;;3.95;0.93;;;;;;;;;;5021144;28;20029;-68
2024/02/28 11:26:27;;;;;;;4.40;1.10;;;;;;;;;;4998062;28;20505;-70
2024/02/28 11:28:56;;;;;;;4.63;1.35;;;;;;;;;;5018945;28;20036;-71
2024/02/28 11:31:22;;;;;;;6.32;1.50;;;;;;;;;;5016378;28;20029;-71
2024/02/28 11:33:48;;;;;;;;;;;;;;;;;;5002122;28;20035;-68
2024/02/28 11:36:15;;;;;;;8.27;2.40;;;;;;;;;;5018958;28;19909;-68
2024/02/28 11:38:41;;;;;;;7.57;2.05;;;;;;;;;;5007767;28;20511;-69
2024/02/28 11:41:07;;;;;;;;;;;;;;;;;;5020943;28;20400;-69
2024/02/28 11:43:37;;;;;;;6.25;1.73;;;;;;;;;;5019416;28;20290;-69
2024/02/28 11:46:09;;;;;;;5.35;1.42;;;;;;;;;;5022748;28;20037;-69
2024/02/28 11:48:35;;;;;;;3.35;1.20;;;;;;;;;;5022905;28;20022;-69
2024/02/28 11:51:01;;;;;;;4.90;1.30;;;;;;;;;;5025588;28;20593;-69
2024/02/28 11:53:27;;;;;;;;;;;;;;;;;;5027231;28;20578;-69
2024/02/28 11:55:55;;;;;;;5.90;1.70;;;;;;;;;;5021442;28;19916;-69
2024/02/28 11:58:22;;;;;;;6.95;2.00;;;;;;;;;;5018188;28;20028;-69
2024/02/28 12:00:48;;;;;;;6.13;1.85;;;;;;;;;;5023872;28;20575;-69
2024/02/28 12:03:14;;;;;;;8.02;2.00;;;;;;;;;;5026751;28;20029;-69
2024/02/28 12:05:44;;;;;;;5.10;1.60;;;;;;;;;;5023453;28;20077;-69
2024/02/28 12:08:11;;;;;;;5.10;1.30;;;;;;;;;;5001814;28;20068;-69
2024/02/28 12:10:37;;;;;;;4.70;1.30;;;;;;;;;;5007097;28;20551;-70
2024/02/28 12:13:03;;;;;;;;;;;;;;;;;;5016527;28;20135;-69
2024/02/28 12:15:33;;;;;;;6.03;1.80;;;;;;;;;;5006310;28;20036;-69
2024/02/28 12:17:59;;;;;;;6.90;1.90;;;;;;;;;;5022578;28;20067;-69
2024/02/28 12:20:25;;;;;;;9.18;3.75;;;;;;;;;;5017941;28;20021;-69
2024/02/28 12:22:51;;;;;;;9.48;4.13;;;;;;;;;;5003531;28;20041;-70
2024/02/28 12:25:18;;;;;;;7.18;2.30;;;;;;;;;;5024812;28;20207;-70
2024/02/28 12:27:44;;;;;;;10.35;3.55;;;;;;;;;;5022806;28;20041;-70
2024/02/28 12:30:10;;;;;;;8.02;3.25;;;;;;;;;;5005511;28;20768;-70
2024/02/28 12:32:36;;;;;;;7.60;2.60;;;;;;;;;;5019514;28;20457;-71
2024/02/28 12:35:04;;;;;;;;;;;;;;;;;;5019813;28;20036;-70
2024/02/28 12:37:30;;;;;;;8.13;2.10;;;;;;;;;;5024027;28;19917;-71
2024/02/28 12:39:56;;;;;;;9.77;3.47;;;;;;;;;;5003717;28;20469;-70
2024/02/28 12:42:22;;;;;;;;;;;;;;;;;;5020525;28;20029;-70
2024/02/28 12:44:48;;;;;;;9.35;2.58;;;;;;;;;;5006534;28;20801;-70
2024/02/28 12:47:14;;;;;;;;;;;;;;;;;;5008468;28;20036;-70
2024/02/28 12:49:40;;;;;;;7.68;2.40;;;;;;;;;;5010747;28;19912;-71
2024/02/28 12:52:07;;;;;;;;;;;;;;;;;;5007226;28;20045;-70
2024/02/28 12:54:33;;;;;;;9.50;2.60;;;;;;;;;;5009404;28;20440;-70
2024/02/28 12:57:02;;;;;;;9.25;3.00;;;;;;;;;;5007249;28;20065;-70
2024/02/28 12:59:28;;;;;;;8.82;2.60;;;;;;;;;;5022681;28;20033;-70
2024/02/28 13:01:55;;;;;;;9.18;2.80;;;;;;;;;;5002517;28;20147;-70
2024/02/28 13:04:21;;;;;;;;;;;;;;;;;;5025316;28;20052;-67
2024/02/28 13:06:47;;;;;;;10.23;3.45;;;;;;;;;;5026403;28;20115;-70
2024/02/28 13:09:13;;;;;;;;;;;;;;;;;;5022369;28;20033;-68
2024/02/28 13:11:39;;;;;;;10.88;4.00;;;;;;;;;;5025138;28;19920;-68
2024/02/28 13:14:07;;;;;;;11.15;4.25;;;;;;;;;;5019040;28;20036;-70
2024/02/28 13:16:34;;;;;;;9.48;3.40;;;;;;;;;;5019597;28;20110;-70
2024/02/28 13:19:00;;;;;;;;;;;;;;;;;;5002486;28;20035;-70
2024/02/28 13:21:26;;;;;;;10.70;4.50;;;;;;;;;;5020514;28;19913;-70
2024/02/28 13:23:52;;;;;;;9.52;4.65;;;;;;;;;;5001135;28;20047;-70
2024/02/28 13:26:18;;;;;;;;;;;;;;;;;;5026174;28;20092;-70
2024/02/28 13:28:44;;;;;;;9.73;4.30;;;;;;;;;;5024936;28;19920;-70
2024/02/28 13:31:11;;;;;;;9.65;3.85;;;;;;;;;;5022061;28;20044;-70
2024/02/28 13:33:37;;;;;;;10.18;3.67;;;;;;;;;;5025898;28;20041;-68
2024/02/28 13:36:03;;;;;;;10.73;5.95;;;;;;;;;;5015823;28;20032;-70
2024/02/28 13:38:30;;;;;;;10.93;4.78;;;;;;;;;;5018865;28;20222;-70
2024/02/28 13:40:56;;;;;;;9.13;3.60;;;;;;;;;;4994658;28;20065;-71
2024/02/28 13:43:22;;;;;;;11.63;4.97;;;;;;;;;;5005269;28;20094;-70
2024/02/28 13:45:48;;;;;;;;;;;;;;;;;;5000563;28;20176;-70
2024/02/28 13:48:27;;;;;;;11.15;4.30;;;;;;;;;;5004251;28;19927;-70
2024/02/28 13:50:53;;;;;;;11.60;6.00;;;;;;;;;;5004219;28;20068;-70
2024/02/28 13:53:19;;;;;;;16.38;8.20;;;;;;;;;;5024217;28;20029;-70
2024/02/28 13:55:45;;;;;;;;;;;;;;;;;;5021975;28;20116;-70
2024/02/28 13:58:12;;;;;;;14.32;7.40;;;;;;;;;;5018492;28;19955;-70
2024/02/28 14:00:38;;;;;;;13.85;8.23;;;;;;;;;;5000513;28;20060;-70
2024/02/28 14:03:06;;;;;;;10.18;4.63;;;;;;;;;;4993582;28;20036;-70
2024/02/28 14:05:32;;;;;;;8.95;3.67;;;;;;;;;;5004619;28;20149;-69
2024/02/28 14:07:58;;;;;;;;;;;;;;;;;;5001098;28;20595;-69
2024/02/28 14:10:24;;;;;;;9.70;5.22;;;;;;;;;;5001594;28;19909;-69
2024/02/28 14:12:52;;;;;;;21.83;15.85;;;;;;;;;;4999068;28;20245;-69
2024/02/28 14:15:19;;;;;;;12.80;6.82;;;;;;;;;;5021018;28;20041;-69
2024/02/28 14:17:45;;;;;;;13.40;8.80;;;;;;;;;;5020429;28;20119;-69
2024/02/28 14:20:11;;;;;;;;;;;;;;;;;;4998306;28;20049;-71
2024/02/28 14:22:41;;;;;;;17.67;10.57;;;;;;;;;;5006791;28;20579;-68
2024/02/28 14:25:07;;;;;;;17.75;10.15;;;;;;;;;;5020334;28;20038;-70
2024/02/28 14:27:35;;;;;;;17.15;8.57;;;;;;;;;;5022917;28;20031;-71
2024/02/28 14:30:01;;;;;;;43.67;34.42;;;;;;;;;;5022500;28;20722;-71
2024/02/28 14:32:27;;;;;;;24.95;13.95;;;;;;;;;;5021518;28;20021;-69
2024/02/28 14:34:54;;;;;;;18.60;10.38;;;;;;;;;;5015108;28;20036;-69
2024/02/28 14:37:20;;;;;;;21.13;14.15;;;;;;;;;;5020033;28;20039;-71
2024/02/28 14:39:46;;;;;;;11.45;6.47;;;;;;;;;;5021152;28;20029;-69
2024/02/28 14:42:12;;;;;;;10.05;3.33;;;;;;;;;;5015696;28;20087;-69